Time;durP1;ratioP1;P1;durP2;ratioP2;P2;SDS_P1;SDS_P2;PMS_P1;PMS_P2;Temp;Humidity;BMP_temperature;BMP_pressure;BME280_temperature;BME280_humidity;BME280_pressure;Samples;Min_cycle;Max_cycle;Signal;HPM_P1;HPM_P2
2023/03/11 00:02:20;;;;;;;18.52;11.75;;;;;;;3.88;81.71;98297.03;4958836;28;20552;-73
2023/03/11 00:04:46;;;;;;;17.98;11.40;;;;;;;3.85;81.98;98299.88;4974627;28;20125;-75
2023/03/11 00:07:12;;;;;;;22.80;10.82;;;;;;;3.77;82.15;98305.69;4958655;28;20039;-74
2023/03/11 00:09:37;;;;;;;22.63;11.48;;;;;;;3.76;82.16;98298.72;4959000;28;20557;-74
2023/03/11 00:12:04;;;;;;;23.85;10.77;;;;;;;3.74;82.34;98313.84;4975685;28;20046;-73
2023/03/11 00:14:30;;;;;;;19.25;10.57;;;;;;;3.72;82.37;98314.88;4974434;28;20568;-75
2023/03/11 00:16:56;;;;;;;19.70;11.38;;;;;;;3.75;82.43;98319.97;4958436;28;20043;-74
2023/03/11 00:19:22;;;;;;;20.52;11.25;;;;;;;3.66;82.77;98316.16;4975849;28;20371;-75
2023/03/11 00:21:48;;;;;;;21.63;11.45;;;;;;;3.67;82.38;98301.16;4975151;28;20494;-73
2023/03/11 00:24:13;;;;;;;18.50;10.60;;;;;;;3.72;82.44;98309.59;4974426;28;20046;-74
2023/03/11 00:26:39;;;;;;;20.08;11.73;;;;;;;3.67;83.00;98312.56;4974402;28;20603;-74
2023/03/11 00:29:05;;;;;;;17.33;11.07;;;;;;;3.70;82.82;98314.16;4958301;28;20499;-74
2023/03/11 00:31:31;;;;;;;18.67;11.70;;;;;;;3.69;82.97;98320.41;4958293;28;20082;-73
2023/03/11 00:33:57;;;;;;;20.88;11.82;;;;;;;3.71;82.99;98335.19;4974515;28;20517;-74
2023/03/11 00:36:32;;;;;;;20.45;12.10;;;;;;;3.78;82.61;98325.03;4990251;28;20108;-74
2023/03/11 00:39:01;;;;;;;18.92;11.30;;;;;;;3.73;82.80;98322.72;4958514;28;20035;-74
2023/03/11 00:41:27;;;;;;;17.42;11.85;;;;;;;3.70;82.82;98311.50;4974076;28;20049;-74
2023/03/11 00:43:53;;;;;;;23.00;11.57;;;;;;;3.74;82.50;98318.28;4957844;28;20514;-74
2023/03/11 00:46:19;;;;;;;24.33;11.52;;;;;;;3.73;82.67;98321.88;4973381;28;20062;-75
2023/03/11 00:48:45;;;;;;;20.27;11.43;;;;;;;3.71;82.91;98342.28;4973979;28;20489;-74
2023/03/11 00:51:14;;;;;;;17.70;11.68;;;;;;;3.74;82.66;98337.63;4973923;28;20053;-74
2023/03/11 00:53:40;;;;;;;;;;;;;;;3.76;82.82;98343.66;4974431;28;20047;-74
2023/03/11 00:56:08;;;;;;;27.83;11.30;;;;;;;3.71;83.19;98348.41;4957670;28;19953;-75
2023/03/11 00:58:34;;;;;;;37.75;12.13;;;;;;;3.74;83.15;98344.72;4973802;28;20054;-75
2023/03/11 01:01:12;;;;;;;21.00;11.50;;;;;;;3.74;83.48;98350.00;4973712;28;20062;-74
2023/03/11 01:03:39;;;;;;;19.52;11.43;;;;;;;3.82;83.14;98352.97;4957913;28;20047;-74
2023/03/11 01:06:06;;;;;;;22.98;12.10;;;;;;;3.89;82.94;98370.94;4973966;28;20038;-75
2023/03/11 01:08:32;;;;;;;25.67;12.23;;;;;;;3.90;82.75;98374.41;4957467;28;20043;-74
2023/03/11 01:10:59;;;;;;;31.75;11.80;;;;;;;3.89;82.92;98389.44;4974808;28;20517;-73
2023/03/11 01:13:26;;;;;;;25.92;11.95;;;;;;;3.83;83.13;98391.66;4989598;28;20070;-73
2023/03/11 01:15:54;;;;;;;20.40;12.38;;;;;;;3.87;83.12;98403.72;4973416;28;20097;-74
2023/03/11 01:18:20;;;;;;;17.63;11.60;;;;;;;3.77;83.16;98384.16;4957280;28;20070;-74
2023/03/11 01:20:46;;;;;;;20.23;12.02;;;;;;;3.85;83.30;98389.75;4973208;28;20086;-74
2023/03/11 01:23:13;;;;;;;23.23;11.85;;;;;;;3.94;83.19;98410.28;4957424;28;20077;-75
2023/03/11 01:25:39;;;;;;;23.40;12.18;;;;;;;3.92;82.93;98406.91;4973402;28;20157;-75
2023/03/11 01:28:07;;;;;;;21.38;12.60;;;;;;;4.02;82.82;98413.25;4973457;28;20038;-74
2023/03/11 01:30:35;;;;;;;19.85;12.85;;;;;;;4.10;83.06;98421.53;4957272;28;20050;-74
2023/03/11 01:33:02;;;;;;;20.70;13.20;;;;;;;4.12;82.84;98419.59;4973158;28;20074;-74
2023/03/11 01:35:29;;;;;;;20.38;13.02;;;;;;;4.21;82.23;98431.34;4973689;28;20069;-75
2023/03/11 01:37:56;;;;;;;24.38;13.82;;;;;;;4.28;82.39;98437.91;4957327;28;20047;-75
2023/03/11 01:40:29;;;;;;;21.83;13.18;;;;;;;4.26;82.12;98428.41;4973966;28;20137;-75
2023/03/11 01:42:59;;;;;;;22.55;12.82;;;;;;;4.32;82.05;98435.91;4956947;28;20093;-75
2023/03/11 01:45:39;;;;;;;22.23;13.77;;;;;;;4.35;81.88;98440.97;4973092;28;20038;-74
2023/03/11 01:48:07;;;;;;;23.25;12.73;;;;;;;4.39;81.91;98438.00;4972989;28;20051;-75
2023/03/11 01:50:35;;;;;;;20.13;14.23;;;;;;;4.40;81.53;98444.19;4973198;28;20046;-74
2023/03/11 01:53:03;;;;;;;24.92;13.55;;;;;;;4.43;81.20;98449.22;4956815;28;20058;-74
2023/03/11 01:55:30;;;;;;;24.63;13.10;;;;;;;4.48;81.51;98456.88;4973187;28;20050;-74
2023/03/11 01:58:01;;;;;;;21.92;12.88;;;;;;;4.47;81.19;98458.66;4972338;28;20043;-74
2023/03/11 02:00:27;;;;;;;20.73;12.60;;;;;;;4.48;81.34;98468.31;4957219;28;20047;-74
2023/03/11 02:02:57;;;;;;;19.10;12.82;;;;;;;4.50;81.39;98473.47;4974123;28;20193;-74
2023/03/11 02:05:23;;;;;;;10.05;6.97;;;;;;;4.19;80.96;98512.63;4972776;28;20039;-75
2023/03/11 02:07:52;;;;;;;5.68;4.30;;;;;;;3.62;81.16;98510.22;4956471;28;20104;-73
2023/03/11 02:10:20;;;;;;;6.22;3.70;;;;;;;3.22;81.86;98499.56;4956536;28;20047;-73
2023/03/11 02:12:49;;;;;;;3.38;3.08;;;;;;;3.06;82.29;98510.25;4956702;28;20050;-74
2023/03/11 02:15:23;;;;;;;3.40;3.10;;;;;;;2.88;82.53;98506.97;4974266;28;20445;-73
2023/03/11 02:17:49;;;;;;;4.07;3.20;;;;;;;2.90;82.61;98506.91;4956552;28;20053;-74
2023/03/11 02:20:40;;;;;;;5.13;3.40;;;;;;;2.98;82.51;98517.81;4956636;28;20082;-74
2023/03/11 02:23:13;;;;;;;3.60;3.30;;;;;;;2.99;82.89;98530.06;4972620;28;20066;-74
2023/03/11 02:26:18;;;;;;;4.45;3.40;;;;;;;3.03;82.87;98534.22;4972507;28;20039;-76
2023/03/11 02:28:46;;;;;;;4.35;3.70;;;;;;;2.94;82.93;98540.06;4961335;28;20050;-75
2023/03/11 02:31:13;;;;;;;5.05;4.15;;;;;;;3.00;82.67;98542.31;4972586;28;20102;-75
2023/03/11 02:33:41;;;;;;;6.07;5.20;;;;;;;2.89;83.05;98535.06;4974076;28;20043;-76
2023/03/11 02:36:32;;;;;;;7.63;5.45;;;;;;;2.82;82.57;98540.81;4956116;28;20046;-76
2023/03/11 02:38:58;;;;;;;5.97;5.38;;;;;;;2.83;82.83;98545.16;4955958;28;20502;-74
2023/03/11 02:41:24;;;;;;;6.25;5.35;;;;;;;2.88;82.66;98546.56;4968580;28;20074;-75
2023/03/11 02:43:50;;;;;;;5.13;4.45;;;;;;;2.88;82.08;98545.72;4963496;28;20047;-75
2023/03/11 02:46:18;;;;;;;6.20;3.90;;;;;;;2.83;82.13;98558.34;4956540;28;20039;-76
2023/03/11 02:48:45;;;;;;;4.05;3.40;;;;;;;2.68;81.75;98547.78;4972311;28;20039;-76
2023/03/11 02:51:11;;;;;;;11.52;3.92;;;;;;;2.64;81.03;98559.47;4956305;28;20581;-74
2023/03/11 02:53:50;;;;;;;3.85;3.10;;;;;;;2.56;81.01;98555.59;4956221;28;20126;-73
2023/03/11 02:56:17;;;;;;;6.07;3.42;;;;;;;2.51;80.28;98574.31;4956516;28;20134;-74
2023/03/11 02:58:42;;;;;;;4.50;3.70;;;;;;;2.54;80.49;98584.69;4988683;28;20129;-75
2023/03/11 03:01:09;;;;;;;4.85;3.33;;;;;;;2.61;79.86;98588.69;4973357;28;20086;-76
2023/03/11 03:03:35;;;;;;;4.10;3.67;;;;;;;2.66;79.46;98596.31;4971807;28;20047;-74
2023/03/11 03:06:01;;;;;;;4.32;3.92;;;;;;;2.67;79.04;98590.09;4972282;28;20086;-75
2023/03/11 03:08:27;;;;;;;5.00;3.53;;;;;;;2.59;78.85;98593.19;4973552;28;20074;-76
2023/03/11 03:10:53;;;;;;;5.47;4.25;;;;;;;2.59;78.58;98593.19;4975104;28;20050;-76
2023/03/11 03:13:19;;;;;;;4.05;3.65;;;;;;;2.59;79.18;98593.19;4956708;28;20043;-75
2023/03/11 03:15:45;;;;;;;4.45;3.80;;;;;;;2.62;78.77;98597.44;4956627;28;20058;-78
2023/03/11 03:18:10;;;;;;;4.60;4.05;;;;;;;2.71;79.39;98590.75;4940686;29;20133;-77
2023/03/11 03:20:36;;;;;;;4.50;4.10;;;;;;;2.78;78.32;98613.19;4939752;29;20078;-75
2023/03/11 03:23:03;;;;;;;5.53;4.18;;;;;;;2.68;78.88;98619.03;4940164;29;20379;-77
2023/03/11 03:25:30;;;;;;;4.40;4.00;;;;;;;2.60;78.44;98623.06;4940171;29;20047;-79
2023/03/11 03:28:00;;;;;;;4.35;3.58;;;;;;;2.74;78.96;98624.88;4940541;29;20048;-80
2023/03/11 03:30:28;;;;;;;5.28;4.60;;;;;;;2.80;79.64;98632.44;4972294;28;20047;-79
2023/03/11 03:32:54;;;;;;;5.63;5.00;;;;;;;3.02;81.92;98637.28;4956085;29;20508;-78
2023/03/11 03:35:20;;;;;;;4.07;3.50;;;;;;;3.19;77.47;98634.44;4955946;28;20051;-76
2023/03/11 03:37:56;;;;;;;8.80;3.55;;;;;;;3.08;74.72;98627.19;4955861;29;20098;-80
2023/03/11 03:40:22;;;;;;;3.70;3.28;;;;;;;3.09;74.57;98636.81;4939997;29;20055;-75
2023/03/11 03:42:49;;;;;;;6.20;4.25;;;;;;;3.18;74.82;98643.31;4939877;29;20074;-78
2023/03/11 03:45:16;;;;;;;3.60;3.30;;;;;;;3.12;73.41;98623.44;4956049;29;20615;-77
2023/03/11 03:47:42;;;;;;;4.55;3.80;;;;;;;3.17;72.55;98639.00;4955792;28;20043;-76
2023/03/11 03:50:10;;;;;;;3.30;2.88;;;;;;;2.95;70.48;98652.63;4955351;28;20111;-80
2023/03/11 03:52:38;;;;;;;3.70;3.33;;;;;;;2.82;71.10;98646.38;4939956;29;20073;-76
2023/03/11 03:55:05;;;;;;;4.10;3.70;;;;;;;2.87;70.53;98660.16;4939582;29;20482;-77
2023/03/11 03:57:31;;;;;;;3.83;3.17;;;;;;;2.75;70.09;98660.91;4955628;29;20446;-74
2023/03/11 03:59:57;;;;;;;5.95;3.13;;;;;;;2.80;69.85;98662.31;4939616;29;20054;-78
2023/03/11 04:02:23;;;;;;;4.78;2.92;;;;;;;2.86;69.35;98669.03;4971565;28;20074;-75
2023/03/11 04:04:49;;;;;;;3.55;2.78;;;;;;;3.02;69.22;98664.53;4955309;29;20467;-77
2023/03/11 04:07:15;;;;;;;4.03;2.70;;;;;;;2.94;68.00;98681.78;4951820;28;20069;-75
2023/03/11 04:09:43;;;;;;;4.40;2.55;;;;;;;2.90;66.77;98681.97;4958273;28;20069;-77
2023/03/11 04:12:14;;;;;;;3.72;2.47;;;;;;;2.86;66.32;98696.28;4974442;28;20102;-77
2023/03/11 04:14:41;;;;;;;7.45;2.40;;;;;;;2.98;66.86;98691.22;4958311;28;20413;-76
2023/03/11 04:17:09;;;;;;;2.38;2.17;;;;;;;3.05;66.64;98693.41;4974579;28;20418;-77
2023/03/11 04:19:35;;;;;;;2.20;2.00;;;;;;;2.95;65.64;98694.88;4973317;28;20101;-76
2023/03/11 04:22:01;;;;;;;2.50;2.30;;;;;;;2.95;65.17;98702.78;4942496;28;20046;-76
2023/03/11 04:24:27;;;;;;;2.35;2.08;;;;;;;2.96;65.28;98695.72;4958126;28;20043;-74
2023/03/11 04:26:53;;;;;;;1.90;1.80;;;;;;;3.13;65.74;98706.13;4974266;28;20035;-79
2023/03/11 04:29:19;;;;;;;3.22;2.20;;;;;;;3.39;65.88;98709.84;4974094;28;20062;-76
2023/03/11 04:31:49;;;;;;;3.22;2.20;;;;;;;3.46;64.30;98710.31;4975422;28;20056;-76
2023/03/11 04:34:15;;;;;;;2.50;2.30;;;;;;;3.55;64.21;98718.53;4958538;28;20133;-76
2023/03/11 04:36:41;;;;;;;2.60;2.40;;;;;;;3.65;64.75;98718.81;4974090;28;20141;-77
2023/03/11 04:39:08;;;;;;;3.35;2.58;;;;;;;3.83;64.68;98720.31;4990597;28;20510;-78
2023/03/11 04:41:40;;;;;;;2.30;2.10;;;;;;;3.87;63.42;98731.53;4957892;28;20046;-79
2023/03/11 04:44:07;;;;;;;4.53;2.33;;;;;;;3.78;63.39;98732.13;4957609;28;20101;-77
2023/03/11 04:46:33;;;;;;;2.67;2.47;;;;;;;3.72;63.36;98729.84;4973896;28;20039;-78
2023/03/11 04:49:01;;;;;;;3.00;2.53;;;;;;;3.76;62.95;98732.22;4957669;28;20478;-78
2023/03/11 04:51:27;;;;;;;2.40;2.20;;;;;;;3.57;61.90;98732.50;4973446;28;20062;-77
2023/03/11 04:53:53;;;;;;;2.40;1.75;;;;;;;3.39;61.39;98731.00;4957898;28;20379;-77
2023/03/11 04:56:19;;;;;;;1.40;1.30;;;;;;;2.98;60.98;98747.50;4973830;28;20054;-78
2023/03/11 04:58:46;;;;;;;1.67;1.58;;;;;;;2.74;61.48;98741.84;4973645;28;20038;-77
2023/03/11 05:01:12;;;;;;;1.67;1.58;;;;;;;2.73;61.72;98752.50;4973796;28;20129;-77
2023/03/11 05:03:38;;;;;;;1.52;1.42;;;;;;;2.63;61.48;98742.47;4973451;28;20463;-76
2023/03/11 05:06:04;;;;;;;1.80;1.70;;;;;;;2.74;62.08;98759.47;4957350;28;20049;-75
2023/03/11 05:08:30;;;;;;;2.38;1.90;;;;;;;2.94;61.60;98761.81;4973415;28;20054;-77
2023/03/11 05:10:56;;;;;;;2.20;2.00;;;;;;;3.21;60.56;98758.50;4973350;28;20066;-75
2023/03/11 05:13:22;;;;;;;3.33;2.10;;;;;;;3.38;60.86;98760.97;4972894;28;20039;-77
2023/03/11 05:15:50;;;;;;;2.42;2.22;;;;;;;3.61;60.85;98760.44;4972627;28;20043;-76
2023/03/11 05:18:16;;;;;;;2.30;2.10;;;;;;;3.80;59.18;98761.94;4955634;28;20054;-77
2023/03/11 05:20:43;;;;;;;2.33;1.95;;;;;;;3.83;59.51;98772.34;4971370;28;20074;-77
2023/03/11 05:23:10;;;;;;;2.30;2.10;;;;;;;3.89;58.98;98777.25;4971884;28;20090;-77
2023/03/11 05:25:36;;;;;;;2.83;2.45;;;;;;;3.85;59.21;98778.38;4955521;28;20150;-79
2023/03/11 05:28:03;;;;;;;2.97;1.90;;;;;;;3.82;59.10;98775.94;4971445;28;20053;-76
2023/03/11 05:30:31;;;;;;;2.30;2.10;;;;;;;4.11;59.35;98772.31;4955632;28;20053;-78
2023/03/11 05:32:57;;;;;;;2.25;2.05;;;;;;;4.30;58.13;98779.09;4989037;28;20047;-75
2023/03/11 05:35:23;;;;;;;2.65;2.45;;;;;;;4.40;58.04;98788.16;4972873;28;20066;-76
2023/03/11 05:37:49;;;;;;;2.00;1.90;;;;;;;4.38;56.82;98787.41;4940854;28;20050;-76
2023/03/11 05:40:17;;;;;;;2.22;2.03;;;;;;;4.32;57.07;98783.34;4956778;28;20085;-76
2023/03/11 05:42:43;;;;;;;4.78;2.55;;;;;;;4.09;57.19;98784.78;4956512;28;20039;-76
2023/03/11 05:45:11;;;;;;;2.90;2.55;;;;;;;4.06;57.72;98781.47;4972626;28;20490;-76
2023/03/11 05:47:41;;;;;;;3.40;2.33;;;;;;;3.93;56.82;98786.69;4972576;28;20055;-76
2023/03/11 05:50:10;;;;;;;3.23;2.63;;;;;;;4.07;58.11;98786.69;4972609;28;20101;-76
2023/03/11 05:52:37;;;;;;;2.40;2.20;;;;;;;4.57;56.58;98787.06;4956747;28;20282;-75
2023/03/11 05:55:03;;;;;;;2.35;2.20;;;;;;;4.46;55.81;98793.06;4956692;28;20197;-76
2023/03/11 05:57:30;;;;;;;2.38;2.17;;;;;;;4.25;55.42;98790.00;4972986;28;20053;-76
2023/03/11 05:59:56;;;;;;;2.42;2.22;;;;;;;4.63;56.60;98799.94;4972792;28;20406;-75
2023/03/11 06:02:23;;;;;;;2.33;2.13;;;;;;;4.49;54.62;98802.59;4972755;28;20043;-76
2023/03/11 06:04:49;;;;;;;2.88;2.63;;;;;;;4.72;55.31;98798.47;4972866;28;20058;-76
2023/03/11 06:07:15;;;;;;;3.17;2.33;;;;;;;4.69;55.04;98809.25;4956513;28;20414;-77
2023/03/11 06:09:44;;;;;;;2.20;2.05;;;;;;;4.36;53.73;98807.81;4972407;28;20038;-75
2023/03/11 06:12:14;;;;;;;2.70;2.50;;;;;;;4.30;54.17;98818.78;4972185;28;20495;-77
2023/03/11 06:15:09;;;;;;;2.38;2.17;;;;;;;4.16;54.08;98821.44;4972660;28;20104;-76
2023/03/11 06:17:36;;;;;;;2.67;2.47;;;;;;;4.17;53.99;98826.63;4972680;28;20465;-77
2023/03/11 06:20:03;;;;;;;3.28;2.65;;;;;;;4.30;54.07;98829.38;4972100;28;20055;-77
2023/03/11 06:22:29;;;;;;;2.60;2.40;;;;;;;4.26;53.81;98827.88;4956144;28;20055;-77
2023/03/11 06:24:55;;;;;;;2.95;2.53;;;;;;;4.28;54.07;98828.59;4972634;28;20043;-77
2023/03/11 06:27:22;;;;;;;11.95;4.07;;;;;;;4.29;54.39;98833.81;4956004;28;20043;-77
2023/03/11 06:29:52;;;;;;;3.95;2.90;;;;;;;3.88;54.54;98839.03;4972533;28;20402;-76
2023/03/11 06:32:18;;;;;;;7.47;3.72;;;;;;;3.72;55.79;98840.88;4956096;28;20141;-76
2023/03/11 06:34:44;;;;;;;3.25;2.95;;;;;;;3.93;55.64;98852.81;4972428;28;20494;-76
2023/03/11 06:37:09;;;;;;;2.70;2.50;;;;;;;3.63;55.52;98850.19;4956247;28;20043;-77
2023/03/11 06:39:35;;;;;;;2.67;2.47;;;;;;;3.36;56.32;98845.59;4973494;28;20046;-77
2023/03/11 06:42:01;;;;;;;2.65;2.45;;;;;;;3.36;56.37;98855.34;4956253;28;20088;-75
2023/03/11 06:44:28;;;;;;;5.15;3.05;;;;;;;3.38;56.63;98856.91;4975424;28;20101;-76
2023/03/11 06:46:54;;;;;;;2.50;2.30;;;;;;;3.52;56.31;98847.34;4943786;28;20047;-77
2023/03/11 06:49:20;;;;;;;2.90;2.60;;;;;;;3.52;55.80;98864.03;4959556;28;20084;-77
2023/03/11 06:51:46;;;;;;;4.40;3.67;;;;;;;3.55;56.29;98855.94;4959929;28;20049;-77
2023/03/11 06:54:13;;;;;;;2.50;2.30;;;;;;;3.69;55.70;98872.78;4960005;28;20049;-77
2023/03/11 06:56:39;;;;;;;3.42;2.88;;;;;;;3.73;55.72;98855.81;4959749;28;20081;-77
2023/03/11 06:59:07;;;;;;;2.63;2.40;;;;;;;4.03;55.11;98858.38;4959528;28;20050;-77
2023/03/11 07:01:34;;;;;;;3.42;2.58;;;;;;;4.11;54.56;98864.91;4975763;28;20050;-75
2023/03/11 07:04:01;;;;;;;2.50;2.30;;;;;;;4.27;53.60;98863.97;4959353;28;20039;-78
2023/03/11 07:06:28;;;;;;;3.22;2.92;;;;;;;4.54;53.79;98866.66;4959375;28;20073;-77
2023/03/11 07:09:02;;;;;;;2.72;2.17;;;;;;;4.56;53.00;98892.09;4976797;28;20047;-77
2023/03/11 07:11:30;;;;;;;2.22;2.03;;;;;;;4.28;54.17;98876.22;4975624;28;20054;-77
2023/03/11 07:14:04;;;;;;;2.80;2.58;;;;;;;4.54;54.48;98864.88;4975779;28;20043;-76
2023/03/11 07:16:32;;;;;;;;;;;;;;;4.48;54.59;98875.84;4975952;28;20046;-77
2023/03/11 07:19:05;;;;;;;3.00;2.70;;;;;;;4.54;54.65;98872.81;4944698;28;19949;-76
2023/03/11 07:21:32;;;;;;;2.92;2.63;;;;;;;4.77;54.27;98884.59;4975238;28;20114;-78
2023/03/11 07:24:00;;;;;;;4.38;2.60;;;;;;;4.74;54.20;98897.16;4959044;28;20081;-77
2023/03/11 07:26:28;;;;;;;3.83;2.83;;;;;;;4.52;54.96;98881.81;4975221;28;20150;-76
2023/03/11 07:28:55;;;;;;;3.20;2.90;;;;;;;4.71;54.85;98886.81;4975113;28;20068;-75
2023/03/11 07:31:24;;;;;;;2.88;2.67;;;;;;;4.69;54.51;98888.69;4975103;28;20421;-77
2023/03/11 07:33:51;;;;;;;3.60;3.30;;;;;;;4.90;54.88;98897.06;4958984;28;20053;-78
2023/03/11 07:36:22;;;;;;;4.45;3.38;;;;;;;5.20;54.28;98899.53;4975028;28;20050;-77
2023/03/11 07:38:53;;;;;;;4.07;3.17;;;;;;;5.18;54.06;98904.06;4992043;28;20046;-75
2023/03/11 07:41:19;;;;;;;3.90;3.17;;;;;;;5.31;53.99;98902.34;4958861;28;20042;-77
2023/03/11 07:43:45;;;;;;;3.97;3.58;;;;;;;5.20;54.28;98907.50;4975012;28;20054;-77
2023/03/11 07:46:21;;;;;;;3.88;3.15;;;;;;;5.14;54.78;98910.53;4975120;28;20043;-76
2023/03/11 07:48:48;;;;;;;3.20;2.90;;;;;;;4.75;55.13;98910.34;4958959;28;20038;-76
2023/03/11 07:51:26;;;;;;;3.47;3.17;;;;;;;4.83;54.90;98912.50;4974830;28;20053;-76
2023/03/11 07:53:53;;;;;;;4.38;3.55;;;;;;;4.95;54.70;98911.72;4975469;28;20049;-75
2023/03/11 07:56:21;;;;;;;3.35;3.05;;;;;;;5.23;53.74;98926.69;4957850;28;20125;-76
2023/03/11 07:58:47;;;;;;;3.85;3.22;;;;;;;5.46;53.92;98925.19;4974806;28;20057;-77
2023/03/11 08:01:19;;;;;;;3.72;3.33;;;;;;;5.71;52.50;98926.19;4974793;28;20042;-76
2023/03/11 08:03:48;;;;;;;7.03;3.80;;;;;;;6.03;51.90;98932.03;4975789;28;20449;-77
2023/03/11 08:06:17;;;;;;;4.97;2.97;;;;;;;6.66;51.07;98940.97;4973915;28;20054;-76
2023/03/11 08:08:43;;;;;;;3.85;2.80;;;;;;;6.79;49.15;98957.72;4956567;28;20514;-76
2023/03/11 08:11:12;;;;;;;2.67;2.42;;;;;;;5.80;48.82;98966.22;4975109;28;20051;-76
2023/03/11 08:13:41;;;;;;;2.95;2.47;;;;;;;5.31;50.20;98955.34;4990475;28;20042;-77
2023/03/11 08:16:09;;;;;;;2.75;2.10;;;;;;;4.82;50.67;98955.81;4975466;28;20450;-77
2023/03/11 08:18:38;;;;;;;4.18;2.80;;;;;;;4.76;51.48;98951.75;4970768;28;20047;-78
2023/03/11 08:21:09;;;;;;;4.70;3.17;;;;;;;5.06;52.21;98959.56;4954879;29;20059;-76
2023/03/11 08:23:35;;;;;;;6.13;2.85;;;;;;;5.16;51.24;98961.63;4974754;28;20372;-75
2023/03/11 08:26:06;;;;;;;3.53;2.20;;;;;;;5.50;50.54;98971.75;4968656;28;20125;-79
2023/03/11 08:28:32;;;;;;;3.67;2.30;;;;;;;5.16;52.74;98967.78;4977005;28;20081;-80
2023/03/11 08:30:58;;;;;;;2.53;2.33;;;;;;;5.36;51.02;98988.53;4957687;28;20137;-75
2023/03/11 08:33:25;;;;;;;2.42;2.22;;;;;;;5.38;51.27;98972.56;4973616;28;20046;-77
2023/03/11 08:35:50;;;;;;;3.05;2.28;;;;;;;5.78;50.92;98976.06;4957969;28;20043;-76
2023/03/11 08:38:16;;;;;;;2.70;2.40;;;;;;;5.87;49.88;98979.94;4973179;28;20049;-75
2023/03/11 08:40:42;;;;;;;3.08;2.78;;;;;;;5.94;49.42;98981.28;4973433;28;20129;-75
2023/03/11 08:43:12;;;;;;;2.40;2.20;;;;;;;5.70;48.57;98978.38;4974659;28;20047;-77
2023/03/11 08:45:40;;;;;;;3.35;2.30;;;;;;;5.97;49.07;98985.50;4973707;28;20125;-76
2023/03/11 08:48:09;;;;;;;2.70;2.30;;;;;;;5.78;48.59;98984.03;4957063;28;20445;-77
2023/03/11 08:50:35;;;;;;;;;;;;;;;5.76;48.80;98982.47;4957643;28;20141;-78
2023/03/11 08:53:02;;;;;;;3.35;2.35;;;;;;;5.05;49.58;98986.16;4973493;28;20012;-76
2023/03/11 08:55:28;;;;;;;3.30;2.40;;;;;;;4.59;51.36;98984.56;4974716;28;20098;-78
2023/03/11 08:57:54;;;;;;;2.70;2.50;;;;;;;4.74;51.33;98985.44;4973237;28;20059;-76
2023/03/11 09:00:21;;;;;;;2.95;2.67;;;;;;;4.82;51.22;99006.13;4988984;28;20130;-78
2023/03/11 09:02:48;;;;;;;2.63;2.20;;;;;;;4.79;50.15;99003.66;4990497;28;20089;-76
2023/03/11 09:05:14;;;;;;;3.03;2.25;;;;;;;4.90;49.62;99008.31;4972490;28;20046;-75
2023/03/11 09:07:40;;;;;;;4.13;2.20;;;;;;;4.70;49.96;99006.88;4973187;28;20127;-75
2023/03/11 09:10:07;;;;;;;5.20;2.42;;;;;;;4.66;49.50;99010.66;4973153;28;20498;-76
2023/03/11 09:12:33;;;;;;;2.92;2.20;;;;;;;4.66;49.72;99008.84;4973172;28;20098;-76
2023/03/11 09:14:59;;;;;;;3.88;2.42;;;;;;;4.40;49.64;99010.44;4974548;28;20549;-75
2023/03/11 09:17:27;;;;;;;2.50;2.30;;;;;;;4.39;50.40;99008.72;4974289;28;20043;-76
2023/03/11 09:19:54;;;;;;;2.33;2.13;;;;;;;4.22;50.38;99000.97;4971999;28;20473;-76
2023/03/11 09:22:20;;;;;;;2.10;1.90;;;;;;;4.55;49.32;99014.81;4972306;28;20059;-77
2023/03/11 09:24:46;;;;;;;2.83;1.90;;;;;;;4.64;49.16;99016.06;4940902;28;20098;-76
2023/03/11 09:27:14;;;;;;;2.17;2.03;;;;;;;4.41;48.76;99019.25;4972570;28;20038;-78
2023/03/11 09:29:40;;;;;;;2.42;2.00;;;;;;;4.40;49.68;99021.03;4956419;28;20395;-76
2023/03/11 09:32:06;;;;;;;1.55;1.45;;;;;;;4.23;49.23;99021.19;4974046;28;20045;-75
2023/03/11 09:34:32;;;;;;;2.58;2.15;;;;;;;4.30;49.86;99019.88;4956672;28;20133;-76
2023/03/11 09:36:59;;;;;;;2.30;1.73;;;;;;;4.45;48.83;99018.09;4972776;28;20106;-79
2023/03/11 09:39:25;;;;;;;2.03;1.83;;;;;;;4.63;48.71;99017.84;4972684;28;20078;-75
2023/03/11 09:42:18;;;;;;;2.35;2.20;;;;;;;4.78;48.49;99015.22;4972516;28;20054;-76
2023/03/11 09:44:48;;;;;;;2.83;2.25;;;;;;;5.45;48.10;99018.03;4973824;28;20091;-77
2023/03/11 09:47:20;;;;;;;1.70;1.60;;;;;;;5.49;46.25;99023.06;4972296;28;20081;-77
2023/03/11 09:50:08;;;;;;;7.55;2.50;;;;;;;5.69;46.66;99024.44;4956467;28;20540;-75
2023/03/11 09:52:57;;;;;;;1.70;1.60;;;;;;;6.22;45.13;99028.03;4955812;28;20073;-78
2023/03/11 09:55:38;;;;;;;2.60;2.40;;;;;;;6.42;45.14;99034.63;4973440;28;20050;-76
2023/03/11 09:58:12;;;;;;;2.75;2.10;;;;;;;6.50;44.75;99042.91;4956367;28;20051;-77
2023/03/11 10:00:39;;;;;;;3.00;2.17;;;;;;;6.46;44.39;99043.22;4973474;28;20108;-78
2023/03/11 10:03:16;;;;;;;1.90;1.80;;;;;;;6.30;43.88;99056.69;4940124;28;20039;-76
2023/03/11 10:05:43;;;;;;;2.10;1.80;;;;;;;6.50;44.44;99065.97;4973603;28;20042;-76
2023/03/11 10:08:28;;;;;;;3.53;1.73;;;;;;;5.90;45.14;99059.28;4971811;28;20082;-75
2023/03/11 10:11:09;;;;;;;2.80;1.88;;;;;;;5.67;46.03;99065.25;4940669;28;20063;-76
2023/03/11 10:13:58;;;;;;;2.13;1.90;;;;;;;5.35;45.85;99068.16;4973258;28;20082;-76
2023/03/11 10:17:02;;;;;;;1.80;1.70;;;;;;;5.48;45.74;99068.22;4972168;28;20049;-74
2023/03/11 10:20:05;;;;;;;2.00;1.85;;;;;;;5.11;46.23;99086.41;4926560;28;20051;-74
2023/03/11 10:22:54;;;;;;;2.47;2.10;;;;;;;4.67;47.31;99091.81;4974530;28;20047;-75
2023/03/11 10:25:32;;;;;;;2.20;2.00;;;;;;;5.29;47.04;99084.44;4956091;28;20057;-77
2023/03/11 10:28:07;;;;;;;2.35;1.95;;;;;;;5.71;47.04;99086.16;4976002;28;20042;-75
2023/03/11 10:30:54;;;;;;;2.60;2.40;;;;;;;5.87;45.76;99103.75;4959304;28;20034;-76
2023/03/11 10:33:23;;;;;;;4.20;2.10;;;;;;;5.70;46.19;99097.72;4976642;28;20532;-79
2023/03/11 10:35:55;;;;;;;3.85;2.35;;;;;;;5.69;45.40;99097.84;4977106;28;20078;-76
2023/03/11 10:38:26;;;;;;;3.85;2.22;;;;;;;4.71;47.46;99111.84;4975722;28;20077;-76
2023/03/11 10:40:55;;;;;;;2.30;2.10;;;;;;;4.71;48.06;99118.00;4975849;28;20084;-76
2023/03/11 10:43:30;;;;;;;1.95;1.75;;;;;;;4.96;46.51;99104.09;4975712;28;20062;-77
2023/03/11 10:45:57;;;;;;;1.85;1.70;;;;;;;4.35;47.23;99129.78;4971138;28;20043;-76
2023/03/11 10:48:24;;;;;;;7.53;2.00;;;;;;;4.08;48.20;99132.22;4970618;28;20118;-76
2023/03/11 10:51:00;;;;;;;3.55;1.95;;;;;;;4.60;48.59;99129.22;4976471;28;20049;-77
2023/03/11 10:53:26;;;;;;;2.17;1.98;;;;;;;5.04;47.40;99138.94;4976074;28;20859;-76
2023/03/11 10:55:55;;;;;;;1.80;1.70;;;;;;;5.34;47.28;99148.59;4959084;28;20047;-76
2023/03/11 10:58:27;;;;;;;2.07;1.87;;;;;;;5.70;45.57;99131.34;4954401;28;20560;-78
2023/03/11 11:01:04;;;;;;;1.70;1.60;;;;;;;5.72;45.56;99135.63;4965049;28;20042;-77
2023/03/11 11:03:31;;;;;;;2.00;1.90;;;;;;;5.31;45.43;99151.47;4968225;28;20141;-76
2023/03/11 11:06:06;;;;;;;3.78;2.15;;;;;;;4.93;46.09;99152.00;4976955;28;20040;-76
2023/03/11 11:08:32;;;;;;;3.55;2.55;;;;;;;4.94;46.23;99156.34;4975915;28;20066;-79
2023/03/11 11:11:01;;;;;;;2.40;2.20;;;;;;;4.94;46.66;99159.00;4976037;28;20057;-77
2023/03/11 11:13:33;;;;;;;3.25;2.17;;;;;;;5.11;46.10;99161.47;4975719;28;20047;-77
2023/03/11 11:16:04;;;;;;;2.70;2.40;;;;;;;4.68;46.30;99172.91;4975497;28;20556;-76
2023/03/11 11:18:46;;;;;;;5.25;2.88;;;;;;;4.10;46.99;99167.41;4959481;28;20050;-75
2023/03/11 11:21:30;;;;;;;2.90;2.70;;;;;;;4.01;48.36;99172.34;4959180;28;20058;-76
2023/03/11 11:24:25;;;;;;;4.10;3.08;;;;;;;4.42;48.16;99185.88;4991676;28;20055;-78
2023/03/11 11:27:22;;;;;;;2.20;2.10;;;;;;;4.69;47.40;99185.22;4959495;28;20046;-76
2023/03/11 11:30:08;;;;;;;2.33;2.13;;;;;;;6.03;45.45;99177.00;4975176;28;20038;-78
2023/03/11 11:32:35;;;;;;;2.10;2.00;;;;;;;6.57;44.76;99181.44;4942943;28;20047;-75
2023/03/11 11:35:02;;;;;;;2.15;2.05;;;;;;;6.41;43.46;99192.22;4975242;28;20093;-77
2023/03/11 11:37:32;;;;;;;3.58;2.85;;;;;;;5.45;44.33;99196.50;4991575;28;20078;-76
2023/03/11 11:40:13;;;;;;;2.83;1.90;;;;;;;4.85;45.18;99212.47;4975089;28;20498;-76
2023/03/11 11:42:43;;;;;;;1.85;1.73;;;;;;;3.98;47.05;99213.03;4958985;28;20480;-76
2023/03/11 11:45:33;;;;;;;2.03;1.92;;;;;;;3.26;49.17;99210.75;4974941;28;20090;-76
2023/03/11 11:48:05;;;;;;;2.50;2.30;;;;;;;3.02;49.64;99226.94;4959039;28;20137;-76
2023/03/11 11:50:35;;;;;;;3.50;2.40;;;;;;;2.90;50.42;99225.78;4958938;28;20051;-77